createdAt,value
2022-10-17T00:01:40.868Z,18.26
2022-10-17T00:04:15.231Z,18.37
2022-10-17T00:06:48.007Z,18.59
2022-10-17T00:09:20.839Z,18.59
2022-10-17T00:11:53.638Z,18.38
2022-10-17T00:14:26.592Z,18.58
2022-10-17T00:16:59.437Z,18.60
2022-10-17T00:19:33.647Z,18.52
2022-10-17T00:22:06.399Z,18.59
2022-10-17T00:24:39.226Z,18.61
2022-10-17T00:27:12.006Z,18.55
2022-10-17T00:29:45.141Z,18.46
2022-10-17T00:32:18.060Z,18.43
2022-10-17T00:34:52.257Z,18.51
2022-10-17T00:37:25.533Z,18.51
2022-10-17T00:39:58.372Z,18.65
2022-10-17T00:42:31.460Z,18.65
2022-10-17T00:45:22.298Z,18.78
2022-10-17T00:47:59.902Z,18.60
2022-10-17T00:50:35.555Z,18.71
2022-10-17T00:53:10.582Z,18.67
2022-10-17T00:55:48.908Z,18.71
2022-10-17T00:58:22.610Z,18.66
2022-10-17T01:00:55.473Z,18.84
2022-10-17T01:03:28.620Z,18.73
2022-10-17T01:06:02.937Z,18.80
2022-10-17T01:08:36.231Z,18.84
2022-10-17T01:11:22.652Z,18.97
2022-10-17T01:14:04.171Z,18.65
2022-10-17T01:16:45.725Z,18.74
2022-10-17T01:19:38.871Z,18.76
2022-10-17T01:22:19.780Z,18.57
2022-10-17T01:25:24.674Z,18.53
2022-10-17T01:28:19.890Z,18.74
2022-10-17T01:31:09.010Z,18.43
2022-10-17T01:33:54.892Z,18.46
2022-10-17T01:36:39.242Z,18.61
2022-10-17T01:39:20.193Z,18.49
2022-10-17T01:42:00.860Z,18.51
2022-10-17T01:44:38.829Z,18.58
2022-10-17T01:47:18.633Z,18.64
2022-10-17T01:49:55.032Z,18.60
2022-10-17T01:52:33.848Z,18.81
2022-10-17T01:55:12.421Z,18.49
2022-10-17T01:57:50.972Z,18.42
2022-10-17T02:00:26.224Z,18.54
2022-10-17T02:03:05.752Z,18.50
2022-10-17T02:05:41.343Z,18.30
2022-10-17T02:08:14.795Z,18.34
2022-10-17T02:10:56.138Z,18.22
2022-10-17T02:13:41.247Z,18.20
2022-10-17T02:16:25.694Z,18.42
2022-10-17T02:19:19.400Z,18.29
2022-10-17T02:22:02.999Z,18.29
2022-10-17T02:24:46.617Z,18.21
2022-10-17T02:27:30.555Z,17.97
2022-10-17T02:30:10.104Z,18.35
2022-10-17T02:32:50.253Z,18.28
2022-10-17T02:35:29.290Z,18.49
2022-10-17T02:38:05.747Z,18.17
2022-10-17T02:40:41.035Z,18.26
2022-10-17T02:43:14.858Z,18.10
2022-10-17T02:45:48.620Z,18.23
2022-10-17T02:48:29.253Z,18.23
2022-10-17T02:51:11.154Z,18.24
2022-10-17T02:53:54.718Z,18.20
2022-10-17T02:56:30.442Z,18.22
2022-10-17T02:59:04.658Z,18.31
2022-10-17T03:01:38.012Z,18.20
2022-10-17T03:04:13.220Z,18.30
2022-10-17T03:06:48.874Z,18.23
2022-10-17T03:09:21.678Z,18.40
2022-10-17T03:11:54.473Z,18.37
2022-10-17T03:14:27.320Z,18.39
2022-10-17T03:17:00.129Z,18.28
2022-10-17T03:19:32.974Z,18.08
2022-10-17T03:22:07.183Z,18.16
2022-10-17T03:24:39.975Z,18.14
2022-10-17T03:27:13.013Z,18.10
2022-10-17T03:29:45.840Z,18.14
2022-10-17T03:32:18.654Z,18.32
2022-10-17T03:34:51.482Z,17.99
2022-10-17T03:37:25.784Z,18.17
2022-10-17T03:39:58.793Z,18.14
2022-10-17T03:42:32.914Z,18.10
2022-10-17T03:45:06.574Z,18.29
2022-10-17T03:47:39.362Z,18.17
2022-10-17T03:50:12.473Z,18.27
2022-10-17T03:52:49.885Z,18.11
2022-10-17T03:55:22.698Z,18.20
2022-10-17T03:57:55.472Z,18.18
2022-10-17T04:00:28.282Z,18.11
2022-10-17T04:03:01.092Z,18.09
2022-10-17T04:05:33.894Z,17.97
2022-10-17T04:08:08.236Z,17.89
2022-10-17T04:10:41.074Z,18.01
2022-10-17T04:13:13.860Z,17.84
2022-10-17T04:15:55.397Z,17.93
2022-10-17T04:18:28.886Z,18.02
2022-10-17T04:21:02.512Z,17.88
2022-10-17T04:23:36.922Z,18.00
2022-10-17T04:26:09.748Z,17.84
2022-10-17T04:28:42.536Z,17.79
2022-10-17T04:31:16.256Z,17.82
2022-10-17T04:33:49.949Z,17.80
2022-10-17T04:36:23.375Z,17.98
2022-10-17T04:38:57.570Z,17.87
2022-10-17T04:41:30.383Z,17.68
2022-10-17T04:44:03.800Z,17.62
2022-10-17T04:46:36.624Z,17.69
2022-10-17T04:49:09.901Z,17.72
2022-10-17T04:51:42.710Z,17.69
2022-10-17T04:54:17.137Z,17.67
2022-10-17T04:56:49.943Z,17.62
2022-10-17T04:59:22.700Z,17.66
2022-10-17T05:01:55.507Z,17.65
2022-10-17T05:04:28.357Z,17.57
2022-10-17T05:07:01.178Z,17.60
2022-10-17T05:09:35.362Z,17.40
2022-10-17T05:12:10.305Z,17.38
2022-10-17T05:14:43.343Z,17.44
2022-10-17T05:17:16.157Z,17.25
2022-10-17T05:19:48.982Z,17.18
2022-10-17T05:22:21.790Z,17.32
2022-10-17T05:24:56.047Z,17.18
2022-10-17T05:27:28.835Z,17.20
2022-10-17T05:30:01.620Z,17.29
2022-10-17T05:32:34.437Z,17.21
2022-10-17T05:35:08.217Z,17.09
2022-10-17T05:37:41.022Z,17.25
2022-10-17T05:40:15.503Z,17.31
2022-10-17T05:42:48.771Z,17.27
2022-10-17T05:45:21.565Z,17.27
2022-10-17T05:47:54.372Z,17.07
2022-10-17T05:50:27.168Z,17.13
2022-10-17T05:52:59.944Z,17.02
2022-10-17T05:55:34.105Z,17.17
2022-10-17T05:58:06.882Z,17.10
2022-10-17T06:00:39.652Z,17.01
2022-10-17T06:03:13.559Z,17.10
2022-10-17T06:05:47.570Z,17.10
2022-10-17T06:08:20.468Z,17.06
2022-10-17T06:10:54.653Z,17.08
2022-10-17T06:13:27.519Z,17.08
2022-10-17T06:16:00.356Z,17.03
2022-10-17T06:18:33.860Z,17.08
2022-10-17T06:21:08.998Z,16.97
2022-10-17T06:23:41.861Z,16.96
2022-10-17T06:26:16.243Z,17.03
2022-10-17T06:28:49.081Z,17.03
2022-10-17T06:31:21.933Z,17.04
2022-10-17T06:33:54.774Z,16.99
2022-10-17T06:36:27.999Z,16.92
2022-10-17T06:39:01.125Z,16.96
2022-10-17T06:41:35.294Z,16.87
2022-10-17T06:44:11.246Z,16.85
2022-10-17T06:46:44.065Z,16.75
2022-10-17T06:49:16.866Z,16.76
2022-10-17T06:51:49.820Z,16.78
2022-10-17T06:54:22.707Z,16.79
2022-10-17T06:56:57.219Z,16.73
2022-10-17T06:59:30.116Z,16.78
2022-10-17T07:02:03.579Z,16.79
2022-10-17T07:04:36.363Z,16.81
2022-10-17T07:07:09.506Z,16.74
2022-10-17T07:09:42.315Z,16.70
2022-10-17T07:12:16.493Z,16.64
2022-10-17T07:14:50.497Z,16.67
2022-10-17T07:17:23.600Z,16.57
2022-10-17T07:19:57.060Z,16.61
2022-10-17T07:22:29.880Z,16.67
2022-10-17T07:25:03.630Z,16.69
2022-10-17T07:27:38.363Z,16.67
2022-10-17T07:30:13.713Z,16.64
2022-10-17T07:32:47.617Z,16.66
2022-10-17T07:35:21.616Z,16.67
2022-10-17T07:37:54.876Z,16.57
2022-10-17T07:40:28.749Z,16.54
2022-10-17T07:43:03.471Z,16.55
2022-10-17T07:45:36.396Z,16.52
2022-10-17T07:48:09.156Z,16.44
2022-10-17T07:50:41.941Z,16.44
2022-10-17T07:53:14.953Z,16.51
2022-10-17T07:55:49.724Z,16.67
2022-10-17T07:58:24.072Z,16.72
2022-10-17T08:00:57.062Z,16.73
2022-10-17T08:03:30.136Z,16.79
2022-10-17T08:06:04.032Z,16.79
2022-10-17T08:08:36.833Z,16.85
2022-10-17T08:11:11.668Z,16.90
2022-10-17T08:13:45.880Z,16.90
2022-10-17T08:16:18.691Z,16.79
2022-10-17T08:18:51.485Z,16.93
2022-10-17T08:21:24.319Z,17.07
2022-10-17T08:23:57.545Z,17.17
2022-10-17T08:26:30.726Z,17.32
2022-10-17T08:29:04.965Z,17.46
2022-10-17T08:31:37.782Z,17.61
2022-10-17T08:34:10.561Z,17.74
2022-10-17T08:36:43.500Z,17.74
2022-10-17T08:39:16.278Z,17.97
2022-10-17T08:42:04.331Z,18.10
2022-10-17T08:44:50.459Z,18.24
2022-10-17T08:47:29.366Z,18.44
2022-10-17T08:50:05.651Z,18.56
2022-10-17T08:52:42.676Z,19.29
2022-10-17T08:57:52.226Z,19.27
2022-10-17T09:00:27.494Z,19.90
2022-10-17T09:03:15.528Z,19.62
2022-10-17T09:05:54.236Z,19.33
2022-10-17T09:08:41.969Z,19.31
2022-10-17T09:11:29.677Z,20.03
2022-10-17T09:14:16.883Z,20.19
2022-10-17T09:17:04.274Z,19.71
2022-10-17T09:19:40.964Z,19.84
2022-10-17T09:22:18.115Z,19.33
2022-10-17T09:24:55.571Z,19.72
2022-10-17T09:27:36.465Z,19.27
2022-10-17T09:30:46.280Z,19.12
2022-10-17T09:33:35.327Z,18.74
2022-10-17T09:36:19.223Z,18.40
2022-10-17T09:38:55.482Z,18.29
2022-10-17T09:41:50.279Z,18.56
2022-10-17T09:44:25.465Z,18.88
2022-10-17T09:47:09.157Z,19.09
2022-10-17T09:49:44.995Z,18.66
2022-10-17T09:52:21.692Z,19.11
2022-10-17T09:54:58.180Z,19.18
2022-10-17T09:57:55.106Z,18.89
2022-10-17T10:00:30.395Z,19.21
2022-10-17T10:03:17.454Z,19.06
2022-10-17T10:06:03.384Z,19.03
2022-10-17T10:08:38.952Z,18.91
2022-10-17T10:11:13.988Z,19.51
2022-10-17T10:13:50.160Z,19.32
2022-10-17T10:16:25.376Z,19.18
2022-10-17T10:18:58.677Z,19.46
2022-10-17T10:21:33.451Z,19.11
2022-10-17T10:24:14.233Z,19.16
2022-10-17T10:26:49.573Z,19.61
2022-10-17T10:29:30.801Z,19.76
2022-10-17T10:32:19.873Z,19.37
2022-10-17T10:34:56.681Z,19.05
2022-10-17T10:37:34.933Z,18.93
2022-10-17T10:40:17.966Z,19.01
2022-10-17T10:42:53.067Z,19.40
2022-10-17T10:45:47.965Z,19.54
2022-10-17T10:48:23.611Z,19.33
2022-10-17T10:51:00.580Z,19.51
2022-10-17T10:53:44.139Z,19.46
2022-10-17T10:56:21.878Z,19.44
2022-10-17T10:58:59.704Z,19.30
2022-10-17T11:01:40.679Z,19.58
2022-10-17T11:04:28.560Z,19.15
2022-10-17T11:07:05.938Z,19.19
2022-10-17T11:09:50.922Z,19.05
2022-10-17T11:12:28.845Z,18.82
2022-10-17T11:15:09.828Z,18.64
2022-10-17T11:17:54.072Z,18.61
2022-10-17T11:20:34.500Z,19.13
2022-10-17T11:23:19.956Z,19.17
2022-10-17T11:25:58.326Z,19.17
2022-10-17T11:28:31.908Z,19.60
2022-10-17T11:31:09.009Z,19.41
2022-10-17T11:33:48.175Z,19.40
2022-10-17T11:36:25.386Z,19.06
2022-10-17T11:39:02.707Z,19.18
2022-10-17T11:41:43.000Z,19.07
2022-10-17T11:44:23.593Z,19.43
2022-10-17T11:47:01.119Z,19.31
2022-10-17T11:49:41.040Z,19.25
2022-10-17T11:52:54.919Z,19.19
2022-10-17T11:55:24.843Z,19.52
2022-10-17T11:58:25.301Z,19.46
2022-10-17T12:01:08.624Z,19.31
2022-10-17T12:03:55.267Z,19.63
2022-10-17T12:06:44.067Z,19.30
2022-10-17T12:09:25.330Z,19.42
2022-10-17T12:12:00.670Z,19.51
2022-10-17T12:14:42.894Z,19.81
2022-10-17T12:17:30.642Z,19.78
2022-10-17T12:20:28.399Z,19.50
2022-10-17T12:23:21.159Z,19.51
2022-10-17T12:25:59.649Z,20.26
2022-10-17T12:28:44.830Z,20.46
2022-10-17T12:31:32.493Z,20.18
2022-10-17T12:34:06.950Z,20.14
2022-10-17T12:36:40.300Z,19.97
2022-10-17T12:39:46.188Z,19.88
2022-10-17T12:42:46.701Z,19.93
2022-10-17T12:45:51.427Z,20.33
2022-10-17T12:49:01.925Z,20.01
2022-10-17T12:52:16.664Z,20.14
2022-10-17T12:55:07.076Z,19.78
2022-10-17T12:57:58.633Z,19.96
2022-10-17T13:00:36.880Z,19.94
2022-10-17T13:03:15.184Z,20.36
2022-10-17T13:05:52.415Z,19.91
2022-10-17T13:08:29.525Z,20.12
2022-10-17T13:11:03.868Z,19.92
2022-10-17T13:13:42.823Z,20.05
2022-10-17T13:16:29.415Z,20.17
2022-10-17T13:19:04.516Z,20.19
2022-10-17T13:21:38.682Z,19.86
2022-10-17T13:24:30.282Z,20.02
2022-10-17T13:27:04.042Z,20.11
2022-10-17T13:29:44.962Z,20.02
2022-10-17T13:32:17.998Z,20.06
2022-10-17T13:35:06.526Z,20.44
2022-10-17T13:37:43.533Z,20.20
2022-10-17T13:40:40.911Z,20.07
2022-10-17T13:43:17.965Z,20.17
2022-10-17T13:45:53.010Z,20.22
2022-10-17T13:48:29.485Z,20.36
2022-10-17T13:51:08.947Z,20.34
2022-10-17T13:53:44.922Z,20.17
2022-10-17T13:56:28.360Z,20.37
2022-10-17T13:59:10.805Z,20.22
2022-10-17T14:01:43.903Z,20.45
2022-10-17T14:04:20.174Z,20.44
2022-10-17T14:06:54.022Z,20.07
2022-10-17T14:09:31.295Z,20.20
2022-10-17T14:12:12.815Z,20.35
2022-10-17T14:15:09.649Z,20.45
2022-10-17T14:17:45.162Z,20.21
2022-10-17T14:21:07.787Z,20.34
2022-10-17T14:23:31.053Z,20.44
2022-10-17T14:26:15.104Z,20.14
2022-10-17T14:28:50.064Z,20.30
2022-10-17T14:31:27.046Z,20.15
2022-10-17T14:34:02.019Z,20.27
2022-10-17T14:36:39.055Z,20.24
2022-10-17T14:39:20.796Z,20.45
2022-10-17T14:41:57.212Z,20.08
2022-10-17T14:44:33.709Z,20.21
2022-10-17T14:47:41.569Z,20.18
2022-10-17T14:50:23.228Z,20.47
2022-10-17T14:53:04.895Z,20.21
2022-10-17T14:55:39.601Z,20.29
2022-10-17T14:58:25.848Z,20.40
2022-10-17T15:01:00.156Z,20.36
2022-10-17T15:03:32.951Z,20.48
2022-10-17T15:06:19.350Z,20.39
2022-10-17T15:08:52.119Z,20.25
2022-10-17T15:11:25.063Z,19.84
2022-10-17T15:13:59.422Z,19.77
2022-10-17T15:16:33.538Z,19.95
2022-10-17T15:19:06.332Z,19.99
2022-10-17T15:21:43.234Z,19.78
2022-10-17T15:24:17.495Z,19.69
2022-10-17T15:26:50.522Z,19.83
2022-10-17T15:29:24.682Z,19.84
2022-10-17T15:31:57.448Z,19.80
2022-10-17T15:34:30.197Z,19.90
2022-10-17T15:37:03.106Z,19.93
2022-10-17T15:39:35.858Z,19.84
2022-10-17T15:42:12.689Z,19.96
2022-10-17T15:44:49.664Z,19.95
2022-10-17T15:47:26.514Z,19.93
2022-10-17T15:49:59.704Z,19.73
2022-10-17T15:52:32.576Z,19.69
2022-10-17T15:55:05.879Z,19.50
2022-10-17T15:57:42.486Z,19.70
2022-10-17T16:00:19.420Z,19.73
2022-10-17T16:02:52.298Z,19.64
2022-10-17T16:05:26.943Z,19.51
2022-10-17T16:07:59.741Z,19.83
2022-10-17T16:10:40.805Z,19.59
2022-10-17T16:13:18.996Z,19.60
2022-10-17T16:15:53.899Z,19.84
2022-10-17T16:18:26.809Z,19.76
2022-10-17T16:20:59.789Z,19.52
2022-10-17T16:23:32.711Z,19.37
2022-10-17T16:26:05.660Z,19.58
2022-10-17T16:28:41.331Z,19.62
2022-10-17T16:31:22.837Z,19.32
2022-10-17T16:33:57.125Z,19.22
2022-10-17T16:36:30.010Z,19.30
2022-10-17T16:39:02.837Z,19.33
2022-10-17T16:41:37.834Z,19.03
2022-10-17T16:44:14.513Z,18.92
2022-10-17T16:46:48.715Z,18.74
2022-10-17T16:49:21.560Z,18.69
2022-10-17T16:51:54.340Z,18.68
2022-10-17T16:54:27.235Z,18.49
2022-10-17T16:56:59.994Z,18.37
2022-10-17T16:59:32.792Z,18.26
2022-10-17T17:02:07.232Z,18.03
2022-10-17T17:04:40.130Z,18.03
2022-10-17T17:07:12.978Z,17.96
2022-10-17T17:09:45.983Z,17.92
2022-10-17T17:12:19.049Z,17.73
2022-10-17T17:14:51.860Z,17.55
2022-10-17T17:17:44.322Z,17.75
2022-10-17T17:20:19.163Z,17.61
2022-10-17T17:22:52.391Z,17.50
2022-10-17T17:25:25.388Z,17.45
2022-10-17T17:27:58.191Z,17.51
2022-10-17T17:30:31.061Z,17.53
2022-10-17T17:33:05.196Z,17.40
2022-10-17T17:35:40.116Z,17.56
2022-10-17T17:38:13.013Z,17.72
2022-10-17T17:40:50.565Z,17.61
2022-10-17T17:43:24.343Z,17.66
2022-10-17T17:45:57.413Z,17.51
2022-10-17T17:48:31.701Z,17.59
2022-10-17T17:51:05.341Z,17.50
2022-10-17T17:53:39.251Z,17.25
2022-10-17T17:56:14.236Z,17.01
2022-10-17T17:58:48.855Z,16.82
2022-10-17T18:01:23.660Z,16.64
2022-10-17T18:04:00.003Z,16.59
2022-10-17T18:06:33.060Z,16.45
2022-10-17T18:09:07.381Z,16.29
2022-10-17T18:11:40.194Z,16.18
2022-10-17T18:14:13.689Z,16.11
2022-10-17T18:16:46.484Z,16.03
2022-10-17T18:19:22.207Z,16.03
2022-10-17T18:21:55.065Z,15.95
2022-10-17T18:24:27.889Z,15.84
2022-10-17T18:27:01.583Z,15.69
2022-10-17T18:29:34.459Z,15.59
2022-10-17T18:32:07.258Z,15.47
2022-10-17T18:34:41.818Z,15.40
2022-10-17T18:37:14.608Z,15.38
2022-10-17T18:39:51.480Z,15.43
2022-10-17T18:42:24.740Z,15.54
2022-10-17T18:44:57.530Z,15.64
2022-10-17T18:47:30.493Z,15.79
2022-10-17T18:50:05.113Z,15.89
2022-10-17T18:52:37.880Z,16.01
2022-10-17T18:55:10.886Z,16.00
2022-10-17T18:57:43.756Z,15.93
2022-10-17T19:00:17.501Z,15.70
2022-10-17T19:02:51.948Z,15.55
2022-10-17T19:05:26.437Z,15.43
2022-10-17T19:07:59.570Z,15.32
2022-10-17T19:10:33.773Z,15.20
2022-10-17T19:13:06.780Z,15.03
2022-10-17T19:15:39.906Z,14.90
2022-10-17T19:18:12.730Z,14.78
2022-10-17T19:20:47.108Z,14.61
2022-10-17T19:23:19.889Z,14.52
2022-10-17T19:25:54.154Z,14.53
2022-10-17T19:28:28.933Z,14.48
2022-10-17T19:31:02.082Z,14.40
2022-10-17T19:33:35.624Z,14.38
2022-10-17T19:36:12.221Z,14.36
2022-10-17T19:38:45.238Z,14.28
2022-10-17T19:41:18.027Z,14.21
2022-10-17T19:43:51.110Z,14.09
2022-10-17T19:46:27.603Z,13.97
2022-10-17T19:49:00.659Z,13.85
2022-10-17T19:51:34.927Z,13.86
2022-10-17T19:54:07.773Z,13.87
2022-10-17T19:56:43.404Z,13.86
2022-10-17T19:59:18.073Z,13.97
2022-10-17T20:01:51.045Z,13.97
2022-10-17T20:04:24.100Z,13.96
2022-10-17T20:07:00.022Z,13.99
2022-10-17T20:09:32.819Z,14.06
2022-10-17T20:12:05.650Z,14.01
2022-10-17T20:14:41.010Z,14.04
2022-10-17T20:17:14.052Z,13.89
2022-10-17T20:19:47.139Z,13.93
2022-10-17T20:22:21.940Z,14.03
2022-10-17T20:24:54.713Z,13.93
2022-10-17T20:27:27.889Z,13.84
2022-10-17T20:30:02.022Z,13.77
2022-10-17T20:32:39.649Z,13.71
2022-10-17T20:35:12.693Z,13.68
2022-10-17T20:37:46.954Z,13.61
2022-10-17T20:40:34.732Z,13.55
2022-10-17T20:43:09.516Z,13.46
2022-10-17T20:45:51.757Z,13.35
2022-10-17T20:48:25.273Z,13.25
2022-10-17T20:50:58.130Z,13.25
2022-10-17T20:53:37.074Z,13.23
2022-10-17T20:56:18.261Z,13.30
2022-10-17T20:58:52.659Z,13.26
2022-10-17T21:01:26.915Z,13.22
2022-10-17T21:04:10.549Z,13.18
2022-10-17T21:06:51.323Z,13.08
2022-10-17T21:09:25.605Z,13.00
2022-10-17T21:11:58.632Z,12.94
2022-10-17T21:14:31.916Z,12.88
2022-10-17T21:17:05.695Z,12.80
2022-10-17T21:19:38.564Z,12.76
2022-10-17T21:22:11.357Z,12.67
2022-10-17T21:24:45.533Z,12.74
2022-10-17T21:27:20.468Z,12.76
2022-10-17T21:29:53.243Z,12.78
2022-10-17T21:32:40.376Z,12.75
2022-10-17T21:35:18.988Z,12.60
2022-10-17T21:37:52.504Z,12.47
2022-10-17T21:40:26.690Z,12.42
2022-10-17T21:42:59.584Z,12.36
2022-10-17T21:45:32.614Z,12.37
2022-10-17T21:48:13.594Z,12.35
2022-10-17T21:50:46.626Z,12.42
2022-10-17T21:53:19.426Z,12.53
2022-10-17T21:55:53.622Z,12.70
2022-10-17T21:58:26.417Z,12.93
2022-10-17T22:01:05.026Z,13.05
2022-10-17T22:03:42.687Z,13.13
2022-10-17T22:09:16.499Z,13.32
2022-10-17T22:11:52.997Z,13.23
2022-10-17T22:14:28.177Z,13.13
2022-10-17T22:17:01.459Z,13.04
2022-10-17T22:19:34.284Z,12.98
2022-10-17T22:22:07.128Z,12.95
2022-10-17T22:24:39.994Z,12.88
2022-10-17T22:27:14.308Z,12.95
2022-10-17T22:29:47.093Z,13.09
2022-10-17T22:32:22.378Z,13.08
2022-10-17T22:34:55.527Z,13.12
2022-10-17T22:37:28.472Z,13.21
2022-10-17T22:40:01.424Z,13.28
2022-10-17T22:42:35.586Z,13.31
2022-10-17T22:45:09.110Z,13.47
2022-10-17T22:47:41.892Z,13.44
2022-10-17T22:50:14.827Z,13.20
2022-10-17T22:52:47.882Z,13.07
2022-10-17T22:55:20.743Z,13.00
2022-10-17T22:57:54.890Z,12.98
2022-10-17T23:03:01.622Z,12.97
2022-10-17T23:05:34.406Z,12.98
2022-10-17T23:08:07.487Z,12.88
2022-10-17T23:10:41.441Z,12.85
2022-10-17T23:13:16.540Z,12.93
2022-10-17T23:15:52.768Z,13.19
2022-10-17T23:18:27.246Z,13.38
2022-10-17T23:21:00.151Z,13.41
2022-10-17T23:23:32.955Z,13.36
2022-10-17T23:26:07.858Z,13.29
2022-10-17T23:28:43.018Z,13.30
2022-10-17T23:31:18.018Z,13.24
2022-10-17T23:33:51.313Z,13.21
2022-10-17T23:36:24.265Z,13.24
2022-10-17T23:38:58.551Z,13.35
2022-10-17T23:41:31.574Z,13.45
2022-10-17T23:44:06.269Z,13.39
2022-10-17T23:46:39.520Z,13.33
2022-10-17T23:49:12.534Z,13.25
2022-10-17T23:51:45.339Z,13.25
2022-10-17T23:54:18.195Z,13.22
2022-10-17T23:56:51.120Z,13.11
2022-10-17T23:59:25.409Z,12.97
